Carrollton, Louisiana
Current Conditions -  °F | °C
As of 3:35 AM on Saturday 29 Nov 2014 (Local Time) from KVSH Reporting Station
Clear Clear  
Wind Chill: 55°   Ceiling: Unl
Heat Index: 55°   Visibility: 10mi
Dew Point: 46°   Wind: 5mph
Humidity: 72%   Direction: 150°SSE
Pressure: 30.22"   Gusts: NA
Location:  29.9472°N, 90.1244°W
Report Text: KVSH 290935Z AUTO 15004KT 10SM CLR 13/08 A3022 RMK AO1
Loading
Personal Weather Stations






























Interactive Weather Map New forecast layout! Learn more

10-Day Weather Forecast

Advertisements
Track Severe Weather on mobile